Time;durP1;ratioP1;P1;durP2;ratioP2;P2;SDS_P1;SDS_P2;PMS_P1;PMS_P2;Temp;Humidity;BMP_temperature;BMP_pressure;BME280_temperature;BME280_humidity;BME280_pressure;Samples;Min_cycle;Max_cycle;Signal;HPM_P1;HPM_P2
2023/07/31 00:00:29;;;;;;;7.10;2.55;;;17.40;99.90;;;;;;5093004;28;20131;-73
2023/07/31 00:02:55;;;;;;;1.35;0.75;;;17.40;99.90;;;;;;5092912;28;20024;-76
2023/07/31 00:05:21;;;;;;;1.55;1.30;;;17.40;99.90;;;;;;5093034;28;20090;-73
2023/07/31 00:07:47;;;;;;;4.10;2.65;;;17.50;99.90;;;;;;5092825;28;20111;-76
2023/07/31 00:10:13;;;;;;;9.00;3.60;;;17.60;99.90;;;;;;5092880;28;20116;-74
2023/07/31 00:12:41;;;;;;;3.85;1.75;;;17.50;99.90;;;;;;5092577;28;20020;-74
2023/07/31 00:15:07;;;;;;;3.05;1.50;;;17.50;99.90;;;;;;5092809;28;20086;-76
2023/07/31 00:17:32;;;;;;;4.55;1.65;;;17.50;99.90;;;;;;5091600;28;20039;-76
2023/07/31 00:19:58;;;;;;;15.55;3.10;;;17.40;99.90;;;;;;5092855;28;20031;-75
2023/07/31 00:22:24;;;;;;;5.93;1.98;;;17.40;99.90;;;;;;5091645;28;20055;-73
2023/07/31 00:24:50;;;;;;;5.78;1.75;;;17.40;99.90;;;;;;5092552;28;20028;-75
2023/07/31 00:27:15;;;;;;;10.82;3.92;;;17.30;99.90;;;;;;5092623;28;20027;-76
2023/07/31 00:29:41;;;;;;;11.07;2.20;;;17.40;99.90;;;;;;5092575;28;20017;-74
2023/07/31 00:32:07;;;;;;;3.95;1.50;;;17.50;99.90;;;;;;5092761;28;20495;-72
2023/07/31 00:34:33;;;;;;;9.90;1.55;;;17.40;99.90;;;;;;5091096;28;20385;-73
2023/07/31 00:36:58;;;;;;;5.68;1.52;;;17.40;99.90;;;;;;5091455;28;20072;-74
2023/07/31 00:39:24;;;;;;;1.10;0.32;;;17.40;99.90;;;;;;5092672;28;20121;-73
2023/07/31 00:41:50;;;;;;;22.17;5.20;;;17.40;99.90;;;;;;5078191;28;20017;-75
2023/07/31 00:44:17;;;;;;;1.98;1.27;;;17.40;99.90;;;;;;5092615;28;20034;-74
2023/07/31 00:46:42;;;;;;;3.15;2.17;;;17.40;99.90;;;;;;5092605;28;20058;-75
2023/07/31 00:49:09;;;;;;;14.07;2.42;;;17.50;99.90;;;;;;5095186;28;20059;-74
2023/07/31 00:51:34;;;;;;;9.60;2.38;;;17.50;99.90;;;;;;5095386;28;20068;-73
2023/07/31 00:54:01;;;;;;;0.77;0.47;;;17.60;99.90;;;;;;5096169;28;20161;-74
2023/07/31 00:56:28;;;;;;;4.30;1.85;;;17.40;99.90;;;;;;5078115;28;20469;-73
2023/07/31 00:58:55;;;;;;;1.15;0.73;;;17.40;99.90;;;;;;5078113;28;20032;-74
2023/07/31 01:01:21;;;;;;;0.63;0.47;;;17.40;99.90;;;;;;5095020;28;20114;-74
2023/07/31 01:03:48;;;;;;;3.30;1.77;;;17.50;99.90;;;;;;5095029;28;20032;-76
2023/07/31 01:06:39;;;;;;;11.73;2.80;;;17.40;99.90;;;;;;5094933;28;20405;-73
2023/07/31 01:09:42;;;;;;;7.95;2.38;;;17.40;99.90;;;;;;5094628;28;20032;-74
2023/07/31 01:12:12;;;;;;;0.40;0.40;;;17.30;99.90;;;;;;5094926;28;20036;-73
2023/07/31 01:14:38;;;;;;;4.85;2.40;;;17.30;99.90;;;;;;5095794;28;20469;-72
2023/07/31 01:17:04;;;;;;;5.38;1.45;;;17.50;99.90;;;;;;5094788;28;20123;-73
2023/07/31 01:19:30;;;;;;;4.03;1.48;;;17.40;99.90;;;;;;5095817;28;20062;-72
2023/07/31 01:22:23;;;;;;;1.55;0.40;;;17.40;99.90;;;;;;5095931;28;20028;-73
2023/07/31 01:25:03;;;;;;;0.47;0.40;;;17.50;99.90;;;;;;5095431;28;20083;-73
2023/07/31 01:27:35;;;;;;;2.80;1.50;;;17.50;99.90;;;;;;5095921;28;20021;-74
2023/07/31 01:30:17;;;;;;;12.40;1.52;;;17.60;99.90;;;;;;5094405;28;20119;-73
2023/07/31 01:32:47;;;;;;;3.70;1.20;;;17.50;99.90;;;;;;5094706;28;20035;-73
2023/07/31 01:35:13;;;;;;;4.68;3.03;;;17.50;99.90;;;;;;5077355;28;20051;-74
2023/07/31 01:37:39;;;;;;;18.70;3.83;;;17.50;99.90;;;;;;5088106;28;20012;-74
2023/07/31 01:40:06;;;;;;;0.63;0.52;;;17.40;99.90;;;;;;5093374;28;20040;-73
2023/07/31 01:42:32;;;;;;;9.07;1.67;;;17.50;99.90;;;;;;5082350;28;20020;-74
2023/07/31 01:44:57;;;;;;;2.92;1.23;;;17.40;99.90;;;;;;5095517;28;20081;-75
2023/07/31 01:47:23;;;;;;;4.20;2.53;;;17.50;99.90;;;;;;5095402;28;20097;-74
2023/07/31 01:49:49;;;;;;;6.40;0.35;;;17.60;99.90;;;;;;5077338;28;20032;-72
2023/07/31 01:52:15;;;;;;;0.95;0.95;;;17.60;99.90;;;;;;5095376;28;20016;-74
2023/07/31 01:54:41;;;;;;;7.82;3.42;;;17.50;99.90;;;;;;5084934;28;20040;-74
2023/07/31 01:57:07;;;;;;;4.82;2.38;;;17.40;99.90;;;;;;5087812;28;20020;-73
2023/07/31 01:59:33;;;;;;;0.75;0.73;;;17.40;99.90;;;;;;5077213;28;20035;-74
2023/07/31 02:02:00;;;;;;;0.30;0.22;;;17.40;99.90;;;;;;5093695;28;20498;-73
2023/07/31 02:04:25;;;;;;;6.55;2.15;;;17.30;99.90;;;;;;5093819;28;20051;-73
2023/07/31 02:06:53;;;;;;;20.23;2.22;;;17.40;99.90;;;;;;5093521;28;20565;-73
2023/07/31 02:09:18;;;;;;;2.90;2.65;;;17.40;99.90;;;;;;5093881;28;20016;-74
2023/07/31 02:11:44;;;;;;;8.57;1.95;;;17.40;99.90;;;;;;5093753;28;20070;-73
2023/07/31 02:14:10;;;;;;;13.52;2.58;;;17.40;99.90;;;;;;5093768;28;20404;-73
2023/07/31 02:16:35;;;;;;;1.13;0.65;;;17.30;99.90;;;;;;5093617;28;20032;-74
2023/07/31 02:19:01;;;;;;;1.25;0.65;;;17.30;99.90;;;;;;5094977;28;20107;-73
2023/07/31 02:21:27;;;;;;;0.55;0.45;;;17.30;99.90;;;;;;5093865;28;20518;-74
2023/07/31 02:23:52;;;;;;;0.95;0.85;;;17.50;99.90;;;;;;5094771;28;20025;-72
2023/07/31 02:26:18;;;;;;;8.52;5.78;;;17.60;99.90;;;;;;5094685;28;20039;-72
2023/07/31 02:28:44;;;;;;;2.80;2.08;;;17.50;99.90;;;;;;5094809;28;20062;-72
2023/07/31 02:31:11;;;;;;;10.48;2.78;;;17.40;99.90;;;;;;5093060;28;20055;-73
2023/07/31 02:33:37;;;;;;;9.70;2.38;;;17.40;99.90;;;;;;5094654;28;20117;-74
2023/07/31 02:36:02;;;;;;;1.45;0.52;;;17.60;99.90;;;;;;5094238;28;20036;-73
2023/07/31 02:38:28;;;;;;;13.07;1.63;;;17.50;99.90;;;;;;5094322;28;20099;-72
2023/07/31 02:40:54;;;;;;;3.13;1.65;;;17.50;99.90;;;;;;5087039;28;20021;-72
2023/07/31 02:43:19;;;;;;;3.38;2.20;;;17.50;99.90;;;;;;5087730;28;20040;-76
2023/07/31 02:45:50;;;;;;;0.65;0.65;;;17.60;99.90;;;;;;5094223;28;20020;-73
2023/07/31 02:48:16;;;;;;;1.65;0.45;;;17.50;99.90;;;;;;5094310;28;20032;-73
2023/07/31 02:50:41;;;;;;;20.75;4.25;;;17.60;99.90;;;;;;5087964;28;20036;-73
2023/07/31 02:53:07;;;;;;;2.78;1.08;;;17.50;99.90;;;;;;5074430;28;20032;-73
2023/07/31 02:55:33;;;;;;;12.30;3.92;;;17.50;99.90;;;;;;5087772;28;20109;-72
2023/07/31 02:57:59;;;;;;;7.65;3.13;;;17.40;99.90;;;;;;5083934;28;20066;-73
2023/07/31 03:00:24;;;;;;;5.97;1.58;;;17.40;99.90;;;;;;5086739;28;20369;-73
2023/07/31 03:02:50;;;;;;;14.32;3.15;;;17.50;99.90;;;;;;5093629;28;20031;-72
2023/07/31 03:05:16;;;;;;;2.63;1.95;;;17.50;99.90;;;;;;5093323;28;20488;-73
2023/07/31 03:07:41;;;;;;;11.18;1.73;;;17.40;99.90;;;;;;5092284;28;20022;-73
2023/07/31 03:10:08;;;;;;;6.47;2.25;;;17.60;99.90;;;;;;5092293;28;20581;-73
2023/07/31 03:12:34;;;;;;;7.38;1.92;;;17.50;99.90;;;;;;5092350;28;20020;-73
2023/07/31 03:14:59;;;;;;;8.02;1.63;;;17.60;99.90;;;;;;5092097;28;20051;-72
2023/07/31 03:17:25;;;;;;;2.63;0.57;;;17.60;99.90;;;;;;5093666;28;20106;-73
2023/07/31 03:19:51;;;;;;;0.90;0.57;;;17.60;99.90;;;;;;5093165;28;20036;-73
2023/07/31 03:22:17;;;;;;;4.65;1.45;;;17.60;99.90;;;;;;5091850;28;20016;-72
2023/07/31 03:24:42;;;;;;;9.85;1.40;;;17.50;99.90;;;;;;5092331;28;20036;-73
2023/07/31 03:27:08;;;;;;;0.22;0.20;;;17.50;99.90;;;;;;5079025;28;20139;-72
2023/07/31 03:29:34;;;;;;;14.85;2.97;;;17.50;99.90;;;;;;5092625;28;20028;-73
2023/07/31 03:32:00;;;;;;;5.05;1.55;;;17.40;99.90;;;;;;5091946;28;20372;-73
2023/07/31 03:34:27;;;;;;;2.67;1.38;;;17.50;99.90;;;;;;5091439;28;20377;-73
2023/07/31 03:36:52;;;;;;;1.48;1.17;;;17.60;99.90;;;;;;5092130;28;20020;-73
2023/07/31 03:39:18;;;;;;;6.43;2.28;;;17.70;99.90;;;;;;5093108;28;20367;-73
2023/07/31 03:41:44;;;;;;;8.88;3.13;;;17.70;99.90;;;;;;5093458;28;20024;-73
2023/07/31 03:44:10;;;;;;;1.40;0.90;;;17.70;99.90;;;;;;5093089;28;20472;-72
2023/07/31 03:46:36;;;;;;;2.75;1.70;;;17.70;99.90;;;;;;5092109;28;20044;-74
2023/07/31 03:49:01;;;;;;;5.07;1.27;;;17.70;99.90;;;;;;5091479;28;20055;-73
2023/07/31 03:51:27;;;;;;;0.10;0.10;;;17.60;99.90;;;;;;5091968;28;20097;-75
2023/07/31 03:53:53;;;;;;;2.67;1.23;;;17.60;99.90;;;;;;5091749;28;20016;-76
2023/07/31 03:56:19;;;;;;;4.07;1.10;;;17.60;99.90;;;;;;5093110;28;20024;-76
2023/07/31 03:58:44;;;;;;;5.03;2.47;;;17.50;99.90;;;;;;5093206;28;20024;-76
2023/07/31 04:01:10;;;;;;;13.70;2.13;;;17.50;99.90;;;;;;5078696;28;20039;-75
2023/07/31 04:03:36;;;;;;;9.93;2.78;;;17.50;99.90;;;;;;5092403;28;20039;-74
2023/07/31 04:06:02;;;;;;;8.10;2.17;;;17.50;99.90;;;;;;5092786;28;20028;-76
2023/07/31 04:08:27;;;;;;;12.02;2.95;;;17.50;99.90;;;;;;5091581;28;20077;-76
2023/07/31 04:10:53;;;;;;;3.97;1.45;;;17.50;99.90;;;;;;5092789;28;20031;-75
2023/07/31 04:13:19;;;;;;;4.18;1.50;;;17.50;99.90;;;;;;5092693;28;20031;-76
2023/07/31 04:15:50;;;;;;;5.20;3.47;;;17.40;99.90;;;;;;5092902;28;20038;-76
2023/07/31 04:18:16;;;;;;;15.00;3.92;;;17.40;99.90;;;;;;5092367;28;20361;-75
2023/07/31 04:20:42;;;;;;;1.75;1.08;;;17.50;99.90;;;;;;5092441;28;20106;-76
2023/07/31 04:23:08;;;;;;;5.40;1.63;;;17.40;99.90;;;;;;5092834;28;20393;-75
2023/07/31 04:25:34;;;;;;;17.58;3.50;;;17.40;99.90;;;;;;5092841;28;20091;-76
2023/07/31 04:28:00;;;;;;;7.20;1.35;;;17.40;99.90;;;;;;5093085;28;20480;-76
2023/07/31 04:30:26;;;;;;;1.50;1.35;;;17.40;99.90;;;;;;5091262;28;20023;-76
2023/07/31 04:32:52;;;;;;;9.50;1.60;;;17.40;99.90;;;;;;5092350;28;20404;-75
2023/07/31 04:35:18;;;;;;;5.30;3.03;;;17.50;99.90;;;;;;5091858;28;20071;-76
2023/07/31 04:37:46;;;;;;;1.80;1.30;;;17.40;99.90;;;;;;5092522;28;20270;-75
2023/07/31 04:40:12;;;;;;;3.00;2.10;;;17.50;99.90;;;;;;5091089;28;20020;-76
2023/07/31 04:42:37;;;;;;;3.80;1.23;;;17.50;99.90;;;;;;5092367;28;20077;-76
2023/07/31 04:45:03;;;;;;;12.60;2.25;;;17.60;99.90;;;;;;5092249;28;20135;-75
2023/07/31 04:47:29;;;;;;;3.78;1.95;;;17.50;99.90;;;;;;5091912;28;20088;-75
2023/07/31 04:49:55;;;;;;;2.63;1.10;;;17.50;99.90;;;;;;5092593;28;20461;-75
2023/07/31 04:52:21;;;;;;;13.00;4.18;;;17.70;99.90;;;;;;5092160;28;20032;-75
2023/07/31 04:54:46;;;;;;;9.10;2.17;;;17.60;99.90;;;;;;5092233;28;20473;-75
2023/07/31 04:57:12;;;;;;;4.80;2.50;;;17.60;99.90;;;;;;5092123;28;20028;-76
2023/07/31 04:59:38;;;;;;;9.35;3.10;;;17.60;99.90;;;;;;5089354;28;20037;-75
2023/07/31 05:02:04;;;;;;;6.25;2.20;;;17.70;99.90;;;;;;5080174;28;20039;-76
2023/07/31 05:04:29;;;;;;;9.65;3.15;;;17.70;99.90;;;;;;5091759;28;20115;-76
2023/07/31 05:06:55;;;;;;;4.30;1.73;;;17.70;99.90;;;;;;5091450;28;20143;-75
2023/07/31 05:09:21;;;;;;;4.57;2.38;;;17.70;99.90;;;;;;5091043;28;20145;-75
2023/07/31 05:11:47;;;;;;;8.63;3.42;;;17.70;99.90;;;;;;5092351;28;20031;-75
2023/07/31 05:14:13;;;;;;;3.75;1.15;;;17.70;99.90;;;;;;5091090;28;20034;-76
2023/07/31 05:16:39;;;;;;;1.52;1.42;;;17.80;99.90;;;;;;5091594;28;20035;-75
2023/07/31 05:19:04;;;;;;;0.00;0.00;;;17.80;99.90;;;;;;5090618;28;20021;-76
2023/07/31 05:21:30;;;;;;;4.13;1.58;;;17.90;99.90;;;;;;5092065;28;20028;-75
2023/07/31 05:23:56;;;;;;;4.45;2.08;;;17.90;99.90;;;;;;5092087;28;20488;-75
2023/07/31 05:26:21;;;;;;;2.38;1.42;;;17.80;99.90;;;;;;5091779;28;20028;-75
2023/07/31 05:28:47;;;;;;;0.43;0.43;;;17.90;99.90;;;;;;5092037;28;20423;-75
2023/07/31 05:31:13;;;;;;;7.90;2.88;;;17.90;99.90;;;;;;5091506;28;20021;-75
2023/07/31 05:33:39;;;;;;;4.78;1.75;;;17.80;99.90;;;;;;5093232;28;20050;-76
2023/07/31 05:36:05;;;;;;;0.20;0.20;;;17.80;99.90;;;;;;5093771;28;20067;-75
2023/07/31 05:38:30;;;;;;;7.55;2.10;;;17.80;99.90;;;;;;5094880;28;20024;-75
2023/07/31 05:40:56;;;;;;;2.42;1.42;;;17.90;99.90;;;;;;5095141;28;20561;-75
2023/07/31 05:43:22;;;;;;;0.68;0.52;;;17.80;99.90;;;;;;5095453;28;20119;-73
2023/07/31 05:45:47;;;;;;;1.40;1.05;;;17.90;99.90;;;;;;5094375;28;20016;-75
2023/07/31 05:48:13;;;;;;;0.85;0.60;;;17.90;99.90;;;;;;5095339;28;20031;-75
2023/07/31 05:50:39;;;;;;;4.20;2.00;;;18.00;99.90;;;;;;5076693;28;20040;-74
2023/07/31 05:53:06;;;;;;;4.88;1.75;;;17.90;99.90;;;;;;5095089;28;20020;-74
2023/07/31 05:55:32;;;;;;;3.42;1.83;;;18.00;99.90;;;;;;5094976;28;20081;-75
2023/07/31 05:57:57;;;;;;;7.47;1.55;;;18.00;99.90;;;;;;5094997;28;20052;-76
2023/07/31 06:00:23;;;;;;;3.08;1.10;;;18.00;99.90;;;;;;5085322;28;20028;-75
2023/07/31 06:02:49;;;;;;;3.20;2.35;;;18.00;99.90;;;;;;5090053;28;20118;-76
2023/07/31 06:05:15;;;;;;;11.80;3.78;;;18.10;99.90;;;;;;5095220;28;20042;-76
2023/07/31 06:07:41;;;;;;;2.72;1.45;;;18.10;99.90;;;;;;5081809;28;20036;-76
2023/07/31 06:10:08;;;;;;;4.60;2.25;;;18.20;99.90;;;;;;5094169;28;20036;-76
2023/07/31 06:12:34;;;;;;;1.42;0.98;;;18.10;99.90;;;;;;5094895;28;20023;-75
2023/07/31 06:15:00;;;;;;;2.50;1.60;;;18.20;99.90;;;;;;5094194;28;20039;-72
2023/07/31 06:17:26;;;;;;;0.80;0.80;;;18.20;99.90;;;;;;5087964;28;20016;-75
2023/07/31 06:19:52;;;;;;;1.48;1.38;;;18.40;99.90;;;;;;5080102;28;20381;-76
2023/07/31 06:22:18;;;;;;;7.10;2.72;;;18.30;99.90;;;;;;5083654;28;20020;-75
2023/07/31 06:24:44;;;;;;;4.75;2.80;;;18.10;99.90;;;;;;5076202;28;20024;-75
2023/07/31 06:27:10;;;;;;;5.03;3.30;;;18.10;99.90;;;;;;5078171;28;20032;-75
2023/07/31 06:29:37;;;;;;;1.33;1.23;;;18.10;99.90;;;;;;5090209;28;20159;-75
2023/07/31 06:32:03;;;;;;;8.57;4.15;;;18.20;99.90;;;;;;5080361;28;20035;-76
2023/07/31 06:34:29;;;;;;;2.00;1.67;;;18.00;99.90;;;;;;5075045;28;20044;-76
2023/07/31 06:36:55;;;;;;;0.85;0.82;;;18.10;99.90;;;;;;5075091;28;20496;-75
2023/07/31 06:39:21;;;;;;;22.90;3.40;;;18.20;99.90;;;;;;5077976;28;20024;-76
2023/07/31 06:41:47;;;;;;;7.40;3.22;;;18.20;99.90;;;;;;5075614;28;20032;-76
2023/07/31 06:44:14;;;;;;;7.50;1.67;;;18.20;99.90;;;;;;5078236;28;20017;-76
2023/07/31 06:46:39;;;;;;;16.23;4.32;;;18.30;99.90;;;;;;5080334;28;20376;-76
2023/07/31 06:49:05;;;;;;;4.10;2.42;;;18.10;99.90;;;;;;5076662;28;20024;-76
2023/07/31 06:51:31;;;;;;;3.72;2.50;;;18.00;99.90;;;;;;5083232;28;20027;-75
2023/07/31 06:53:58;;;;;;;5.72;2.67;;;18.00;99.90;;;;;;5074338;28;20088;-76
2023/07/31 06:56:23;;;;;;;6.45;1.75;;;18.00;99.90;;;;;;5078949;28;20115;-75
2023/07/31 06:58:49;;;;;;;9.95;1.45;;;18.00;99.90;;;;;;5077300;28;20454;-75
2023/07/31 07:01:15;;;;;;;1.27;1.17;;;18.10;99.90;;;;;;5077796;28;20408;-76
2023/07/31 07:03:41;;;;;;;2.08;1.30;;;18.10;99.90;;;;;;5092508;28;20038;-76
2023/07/31 07:06:07;;;;;;;4.57;2.42;;;18.10;99.90;;;;;;5092800;28;20042;-75
2023/07/31 07:08:32;;;;;;;2.58;2.38;;;18.10;99.90;;;;;;5093070;28;20483;-76
2023/07/31 07:10:58;;;;;;;7.65;1.67;;;18.20;99.90;;;;;;5093098;28;20028;-76
2023/07/31 07:13:24;;;;;;;2.80;1.20;;;18.20;99.90;;;;;;5092173;28;20066;-76
2023/07/31 07:15:51;;;;;;;8.18;2.47;;;18.00;99.90;;;;;;5092153;28;20039;-76
2023/07/31 07:18:17;;;;;;;4.30;1.05;;;18.00;99.90;;;;;;5078601;28;20025;-76
2023/07/31 07:20:50;;;;;;;6.18;2.60;;;18.00;99.90;;;;;;5076435;28;20024;-75
2023/07/31 07:23:16;;;;;;;10.35;2.05;;;18.00;99.90;;;;;;5079119;28;20020;-77
2023/07/31 07:25:43;;;;;;;0.98;0.70;;;18.00;99.90;;;;;;5071406;28;20098;-75
2023/07/31 07:28:09;;;;;;;3.25;1.67;;;18.00;99.90;;;;;;5077439;28;20505;-76
2023/07/31 07:30:35;;;;;;;2.08;1.38;;;18.00;99.90;;;;;;5074001;28;20067;-76
2023/07/31 07:33:00;;;;;;;5.35;2.38;;;18.00;99.90;;;;;;5076416;28;20070;-77
2023/07/31 07:35:27;;;;;;;9.27;3.80;;;18.00;99.90;;;;;;5077028;28;20043;-76
2023/07/31 07:37:53;;;;;;;9.13;2.15;;;17.90;99.90;;;;;;5074950;28;20025;-76
2023/07/31 07:40:20;;;;;;;14.35;2.90;;;17.90;99.90;;;;;;5078555;28;20143;-76
2023/07/31 07:42:46;;;;;;;13.60;4.70;;;18.00;99.90;;;;;;5079309;28;20028;-76
2023/07/31 07:45:12;;;;;;;3.13;1.85;;;18.00;99.90;;;;;;5078698;28;20097;-76
2023/07/31 07:47:40;;;;;;;2.65;0.82;;;18.00;99.90;;;;;;5081879;28;20512;-76
2023/07/31 07:50:07;;;;;;;10.32;3.30;;;18.00;99.90;;;;;;5083353;28;20115;-77
2023/07/31 07:52:32;;;;;;;1.77;0.93;;;18.00;99.90;;;;;;5072895;28;20141;-76
2023/07/31 07:54:58;;;;;;;12.00;3.08;;;18.20;99.90;;;;;;5076390;28;20060;-76
2023/07/31 07:57:24;;;;;;;9.23;2.78;;;18.20;99.90;;;;;;5076907;28;20016;-75
2023/07/31 07:59:50;;;;;;;1.60;0.93;;;18.20;99.90;;;;;;5080167;28;20024;-76
2023/07/31 08:02:15;;;;;;;2.15;1.23;;;18.40;99.90;;;;;;5074164;28;20028;-76
2023/07/31 08:04:41;;;;;;;5.13;0.90;;;18.50;99.90;;;;;;5079304;28;20032;-76
2023/07/31 08:07:07;;;;;;;5.18;1.40;;;18.60;99.90;;;;;;5085370;28;20028;-76
2023/07/31 08:09:32;;;;;;;2.17;1.27;;;18.50;99.90;;;;;;5074071;28;20020;-76
2023/07/31 08:12:02;;;;;;;4.22;1.77;;;18.50;99.90;;;;;;5074285;28;20078;-76
2023/07/31 08:14:27;;;;;;;1.13;1.02;;;18.50;99.90;;;;;;5076332;28;20040;-76
2023/07/31 08:16:53;;;;;;;2.92;1.73;;;18.50;99.90;;;;;;5078907;28;20111;-75
2023/07/31 08:19:19;;;;;;;2.92;1.23;;;18.40;99.90;;;;;;5076583;28;20032;-76
2023/07/31 08:21:45;;;;;;;0.73;0.55;;;18.50;99.90;;;;;;5083101;28;20489;-76
2023/07/31 08:24:11;;;;;;;4.45;1.70;;;18.80;99.90;;;;;;5080441;28;20036;-76
2023/07/31 08:26:36;;;;;;;4.63;2.03;;;18.50;99.90;;;;;;5078080;28;20023;-76
2023/07/31 08:29:03;;;;;;;2.00;1.45;;;18.60;99.90;;;;;;5084298;28;20522;-75
2023/07/31 08:31:29;;;;;;;4.45;1.58;;;18.60;99.90;;;;;;5081043;28;20028;-75
2023/07/31 08:33:55;;;;;;;2.28;1.95;;;18.40;99.90;;;;;;5076964;28;20058;-75
2023/07/31 08:36:21;;;;;;;7.13;1.40;;;18.60;99.90;;;;;;5077197;28;20493;-76
2023/07/31 08:38:47;;;;;;;2.65;0.10;;;18.70;99.90;;;;;;5074334;28;20103;-76
2023/07/31 08:41:13;;;;;;;1.10;0.88;;;18.60;99.90;;;;;;5078384;28;20049;-77
2023/07/31 08:43:39;;;;;;;7.55;2.95;;;18.70;99.90;;;;;;5073854;28;20020;-76
2023/07/31 08:46:05;;;;;;;3.50;1.25;;;18.70;99.90;;;;;;5072179;28;20480;-76
2023/07/31 08:48:33;;;;;;;2.30;1.13;;;18.70;99.90;;;;;;5074764;28;20238;-76
2023/07/31 08:50:58;;;;;;;5.75;2.50;;;18.80;99.90;;;;;;5079689;28;20025;-76
2023/07/31 08:53:24;;;;;;;4.45;1.70;;;18.90;99.90;;;;;;5077766;28;20031;-75
2023/07/31 08:55:53;;;;;;;0.90;0.63;;;18.80;99.90;;;;;;5075685;28;20041;-76
2023/07/31 08:58:20;;;;;;;5.03;2.92;;;18.90;99.90;;;;;;5075029;28;20009;-76
2023/07/31 09:00:49;;;;;;;4.25;1.33;;;18.80;99.90;;;;;;5072041;28;20070;-75
2023/07/31 09:03:17;;;;;;;3.15;1.67;;;19.10;99.90;;;;;;5090948;28;20024;-76
2023/07/31 09:05:45;;;;;;;5.63;2.63;;;19.30;99.90;;;;;;5091632;28;20410;-75
2023/07/31 09:08:14;;;;;;;4.68;2.38;;;19.10;99.90;;;;;;5094593;28;20136;-76
2023/07/31 09:10:43;;;;;;;0.00;0.00;;;19.10;99.90;;;;;;5093384;28;20238;-76
2023/07/31 09:13:10;;;;;;;2.97;1.52;;;19.30;99.90;;;;;;5088904;28;20070;-76
2023/07/31 09:15:37;;;;;;;3.15;1.92;;;19.50;99.90;;;;;;5090818;28;20040;-76
2023/07/31 09:18:05;;;;;;;1.08;0.63;;;19.40;99.90;;;;;;5084426;28;20021;-76
2023/07/31 09:20:31;;;;;;;0.90;0.88;;;19.20;99.90;;;;;;5076275;28;20115;-76
2023/07/31 09:23:15;;;;;;;4.38;0.70;;;19.20;99.90;;;;;;5082665;28;20017;-76
2023/07/31 09:25:44;;;;;;;1.10;0.40;;;19.20;99.90;;;;;;5078758;28;20022;-76
2023/07/31 09:28:10;;;;;;;0.43;0.43;;;19.50;99.90;;;;;;5083635;28;20020;-76
2023/07/31 09:30:54;;;;;;;3.17;1.42;;;19.40;99.90;;;;;;5079032;28;20558;-76
2023/07/31 09:33:20;;;;;;;3.30;1.00;;;19.30;99.90;;;;;;5079006;28;20024;-73
2023/07/31 09:35:47;;;;;;;2.47;1.40;;;19.20;99.90;;;;;;5075515;28;20430;-72
2023/07/31 09:38:15;;;;;;;1.75;1.25;;;19.30;99.90;;;;;;5078070;28;20491;-72
2023/07/31 09:40:43;;;;;;;1.30;1.02;;;19.30;99.90;;;;;;5083675;28;20036;-73
2023/07/31 09:43:20;;;;;;;0.50;0.50;;;19.40;99.90;;;;;;5077404;28;20405;-73
2023/07/31 09:45:46;;;;;;;1.30;0.73;;;19.50;99.90;;;;;;5090779;28;20089;-72
2023/07/31 09:48:16;;;;;;;1.05;0.38;;;19.60;99.90;;;;;;5080841;28;20024;-72
2023/07/31 09:50:46;;;;;;;6.88;1.15;;;19.70;99.90;;;;;;5075314;28;20071;-72
2023/07/31 09:53:12;;;;;;;2.47;1.23;;;19.50;99.90;;;;;;5075593;28;20048;-72
2023/07/31 09:55:40;;;;;;;2.50;1.83;;;19.50;99.90;;;;;;5075029;28;20460;-72
2023/07/31 09:58:08;;;;;;;1.33;1.02;;;19.40;99.90;;;;;;5080108;28;20020;-72
2023/07/31 10:00:34;;;;;;;9.35;1.10;;;19.50;99.90;;;;;;5079939;28;20039;-73
2023/07/31 10:03:02;;;;;;;0.57;0.57;;;19.70;99.90;;;;;;5093361;28;20028;-73
2023/07/31 10:05:34;;;;;;;1.48;0.98;;;19.70;99.90;;;;;;5089588;28;20473;-72
2023/07/31 10:08:00;;;;;;;4.60;2.35;;;19.70;99.90;;;;;;5085887;28;20032;-72
2023/07/31 10:10:27;;;;;;;0.60;0.60;;;19.50;99.90;;;;;;5074448;28;20155;-72
2023/07/31 10:12:54;;;;;;;1.15;0.70;;;19.40;99.90;;;;;;5073047;28;20032;-73
2023/07/31 10:15:20;;;;;;;2.38;0.93;;;19.50;99.90;;;;;;5074252;28;20109;-73
2023/07/31 10:17:50;;;;;;;2.20;1.55;;;19.60;99.90;;;;;;5072105;28;20032;-72
2023/07/31 10:20:16;;;;;;;3.45;1.77;;;19.40;99.90;;;;;;5074048;28;20029;-72
2023/07/31 10:22:43;;;;;;;2.38;1.25;;;19.20;99.90;;;;;;5074183;28;20111;-71
2023/07/31 10:25:10;;;;;;;9.45;1.20;;;19.10;99.90;;;;;;5072786;28;20025;-72
2023/07/31 10:27:37;;;;;;;2.92;1.50;;;19.40;99.90;;;;;;5074588;28;20591;-76
2023/07/31 10:30:05;;;;;;;1.05;0.95;;;19.40;99.90;;;;;;5077225;28;20028;-76
2023/07/31 10:32:32;;;;;;;1.67;1.48;;;19.30;99.90;;;;;;5073271;28;20393;-77
2023/07/31 10:34:58;;;;;;;3.55;1.48;;;19.40;99.90;;;;;;5071491;28;20392;-76
2023/07/31 10:37:28;;;;;;;10.32;2.63;;;19.30;99.90;;;;;;5070640;28;20021;-76
2023/07/31 10:40:03;;;;;;;0.93;0.77;;;19.30;99.90;;;;;;5073227;28;20031;-75
2023/07/31 10:42:47;;;;;;;4.05;1.98;;;19.30;99.90;;;;;;5073197;28;20358;-77
2023/07/31 10:45:13;;;;;;;1.73;1.13;;;19.30;99.90;;;;;;5084763;28;20763;-77
2023/07/31 10:47:46;;;;;;;1.73;1.63;;;19.50;99.90;;;;;;5073677;28;20020;-77
2023/07/31 10:50:20;;;;;;;2.20;1.30;;;19.30;99.90;;;;;;5073039;28;20424;-77
2023/07/31 10:52:53;;;;;;;6.97;1.50;;;19.20;99.90;;;;;;5074176;28;20111;-73
2023/07/31 10:55:30;;;;;;;5.03;1.60;;;19.20;99.90;;;;;;5071920;28;20115;-78
2023/07/31 10:57:58;;;;;;;6.32;2.28;;;19.50;99.90;;;;;;5073344;28;20032;-78
2023/07/31 11:00:28;;;;;;;1.23;1.00;;;19.50;99.90;;;;;;5072154;28;20037;-78
2023/07/31 11:03:07;;;;;;;1.95;1.45;;;19.60;99.90;;;;;;5080803;28;20111;-77
2023/07/31 11:05:55;;;;;;;1.55;1.13;;;19.50;99.90;;;;;;5072875;28;20090;-78
2023/07/31 11:08:23;;;;;;;2.40;1.38;;;19.70;99.90;;;;;;5072998;28;20028;-78
2023/07/31 11:11:03;;;;;;;6.45;2.10;;;19.80;99.90;;;;;;5073115;28;20032;-78
2023/07/31 11:13:39;;;;;;;5.82;2.15;;;19.80;99.90;;;;;;5073166;28;20017;-78
2023/07/31 11:16:04;;;;;;;3.13;1.23;;;19.40;99.90;;;;;;5073034;28;20044;-77
2023/07/31 11:18:30;;;;;;;1.10;0.80;;;19.50;99.90;;;;;;5072893;28;20453;-78
2023/07/31 11:20:56;;;;;;;3.20;1.75;;;19.20;99.90;;;;;;5073088;28;20024;-78
2023/07/31 11:23:23;;;;;;;3.15;1.92;;;19.20;99.90;;;;;;5072781;28;20036;-78
2023/07/31 11:25:50;;;;;;;4.07;1.63;;;19.20;99.90;;;;;;5072657;28;20029;-77
2023/07/31 11:28:17;;;;;;;3.28;1.23;;;19.30;99.90;;;;;;5072983;28;20446;-78
2023/07/31 11:30:45;;;;;;;0.70;0.68;;;19.30;99.90;;;;;;5072666;28;20039;-78
2023/07/31 11:33:13;;;;;;;1.88;1.27;;;19.40;99.90;;;;;;5070776;28;20510;-78
2023/07/31 11:35:49;;;;;;;2.45;0.60;;;19.50;99.90;;;;;;5073490;28;20047;-78
2023/07/31 11:38:34;;;;;;;3.38;1.92;;;19.80;99.90;;;;;;5072811;28;20442;-78
2023/07/31 11:41:04;;;;;;;5.68;0.95;;;19.70;99.90;;;;;;5072883;28;20377;-79
2023/07/31 11:43:31;;;;;;;1.90;0.73;;;19.70;99.90;;;;;;5072633;28;20021;-78
2023/07/31 11:46:02;;;;;;;2.38;2.10;;;19.70;99.90;;;;;;5072826;28;20052;-78
2023/07/31 11:48:33;;;;;;;3.20;0.95;;;19.70;99.90;;;;;;5072246;28;20425;-78
2023/07/31 11:51:01;;;;;;;8.48;3.28;;;19.70;99.90;;;;;;5072603;28;20055;-75
2023/07/31 11:53:53;;;;;;;1.65;1.10;;;19.60;99.90;;;;;;5072906;28;20020;-78
2023/07/31 11:56:20;;;;;;;;;;;19.60;99.90;;;;;;5072975;28;20075;-78
2023/07/31 11:58:48;;;;;;;13.93;3.85;;;19.60;99.90;;;;;;5071155;28;19915;-78
2023/07/31 12:01:15;;;;;;;0.30;0.30;;;19.60;99.90;;;;;;5072878;28;20032;-78
2023/07/31 12:03:42;;;;;;;1.08;0.77;;;19.80;99.90;;;;;;5092488;28;20123;-78
2023/07/31 12:06:08;;;;;;;4.43;1.95;;;20.00;99.90;;;;;;5092397;28;20443;-77
2023/07/31 12:08:34;;;;;;;5.15;1.85;;;19.80;99.90;;;;;;5081388;28;20265;-78
2023/07/31 12:11:09;;;;;;;10.10;2.70;;;19.70;99.90;;;;;;5092857;28;20349;-78
2023/07/31 12:13:35;;;;;;;1.92;1.60;;;19.60;99.90;;;;;;5092546;28;20103;-77
2023/07/31 12:16:03;;;;;;;0.20;0.20;;;19.60;99.90;;;;;;5091464;28;20032;-76
2023/07/31 12:18:33;;;;;;;2.75;1.80;;;19.60;99.90;;;;;;5092042;28;20027;-77
2023/07/31 12:21:01;;;;;;;4.57;3.05;;;19.60;99.90;;;;;;5091902;28;20480;-78
2023/07/31 12:23:31;;;;;;;2.92;1.45;;;19.70;99.90;;;;;;5092417;28;20484;-78
2023/07/31 12:26:07;;;;;;;0.43;0.43;;;19.70;99.90;;;;;;5091349;28;20043;-78
2023/07/31 12:28:42;;;;;;;1.52;0.47;;;19.80;99.90;;;;;;5092749;28;20047;-78
2023/07/31 12:31:14;;;;;;;5.68;2.45;;;19.90;99.90;;;;;;5092151;28;20123;-78
2023/07/31 12:33:40;;;;;;;;;;;19.70;99.90;;;;;;5091400;28;20389;-77
2023/07/31 12:36:11;;;;;;;2.22;1.77;;;19.80;99.90;;;;;;5092640;28;19922;-78
2023/07/31 12:38:37;;;;;;;2.20;2.00;;;19.90;99.90;;;;;;5092355;28;20032;-78
2023/07/31 12:41:03;;;;;;;0.75;0.63;;;20.00;99.90;;;;;;5088397;28;20031;-78
2023/07/31 12:43:29;;;;;;;5.13;2.40;;;20.10;99.90;;;;;;5076534;28;20032;-77
2023/07/31 12:45:56;;;;;;;4.80;2.45;;;19.90;99.90;;;;;;5075354;28;20099;-78